Terminal Aerodrome Forecast
Issued by NWS Portland, OR

Home | Current Version | Previous Version | Text Only | Print | Product List | Glossary On
Versions: 1 2 3 4 5 6 7 8 9 10 11 12 13 14 15 16 17 18 19 20 21 22 23 24 25 26 27 28 29 30 31 32 33 34 35
000
FTUS46 KPQR 271120
TAFSLE
TAF
KSLE 271120Z 2712/2812 20004KT P6SM SCT035 BKN060
      TEMPO 2712/2716 -SHRA BKN035 BKN060
     FM271600 20008KT P6SM -SHRA SCT025 BKN050
     FM272100 24008KT P6SM -SHRA SCT025 BKN050
     FM280000 28010KT P6SM VCSH SCT030 BKN050
     FM280500 28004KT P6SM FEW030 BKN050=

USA.gov is the U.S. government's official web portal to all federal, state and local government web resources and services.